• Join FlightAware (Why Join?)
  • Login
  • US Flag 
01:00PM EDT


 

Airport Tracker/Info


-or-


 

Live Flight TrackerFlight Track Log ✈ DAL6067 ✈ 15-Apr-2013 ✈ KDTW - KCMH

Flight Track Log - Related Links

Times and Time Zones

All times are in EDT time to prevent confusion due to time zone crossing. See the DAL6067 flight status page for this flight to view local times or setup timezone preferences in your user account.

Time Position Orientation Groundspeed Altitude Reporting Facility
EDT Latitude Longitude Course Direction KTS MPH feet Rate Location/Type
12:13PM 42.2039 -83.3536 198° South 145 167 1,400  Level FAA TRACON SMA TRACON (SMA)
12:13PM 42.1914 -83.3592 198° South 157 181 2,100 1,920 Climbing FAA TRACON SMA TRACON (SMA)
12:13PM 42.1744 -83.3658 196° South 187 215 2,700 2,220 Climbing FAA TRACON SMA TRACON (SMA)
12:14PM 42.1583 -83.3717 195° South 196 226 3,600 3,060 Climbing FAA TRACON SMA TRACON (SMA)
12:14PM 42.1378 -83.3775 192° South 200 230 4,700 2,760 Climbing FAA TRACON SMA TRACON (SMA)
12:14PM 42.1219 -83.3831 195° South 203 234 5,500 2,520 Climbing FAA TRACON SMA TRACON (SMA)
12:15PM 42.1011 -83.3911 196° South 210 242 6,400 2,520 Climbing FAA TRACON SMA TRACON (SMA)
12:15PM 42.0806 -83.4003 198° South 223 257 7,200 2,400 Climbing FAA TRACON SMA TRACON (SMA)
12:15PM 42.0636 -83.4050 192° South 218 251 8,000 2,460 Climbing FAA TRACON SMA TRACON (SMA)
12:16PM 42.0450 -83.4039 177° South 221 254 8,800 2,460 Climbing FAA TRACON SMA TRACON (SMA)
12:16PM 42.0206 -83.3997 173° South 228 262 9,700 2,040 Climbing FAA TRACON SMA TRACON (SMA)
12:16PM 42.0006 -83.3964 173° South 235 270 10,200 1,260 Climbing FAA TRACON SMA TRACON (SMA)
12:17PM 41.9783 -83.3928 173° South 255 293 10,600 1,440 Climbing FAA TRACON SMA TRACON (SMA)
12:17PM 41.9492 -83.3878 173° South 277 319 11,200 1,620 Climbing FAA TRACON SMA TRACON (SMA)
12:17PM 41.9247 -83.3836 173° South 285 328 11,700 1,320 Climbing FAA TRACON SMA TRACON (SMA)
12:18PM 41.8994 -83.3797 173° South 296 341 12,100 1,680 Climbing FAA TRACON SMA TRACON (SMA)
12:18PM 41.8669 -83.3742 173° South 305 351 12,800 1,980 Climbing FAA TRACON SMA TRACON (SMA)
12:18PM 41.8403 -83.3694 172° South 310 357 13,400 1,800 Climbing FAA TRACON SMA TRACON (SMA)
12:19PM 41.8133 -83.3653 173° South 313 360 14,000 1,920 Climbing FAA TRACON SMA TRACON (SMA)
12:19PM 41.7797 -83.3608 174° South 315 362 14,700 1,800 Climbing FAA TRACON SMA TRACON (SMA)
12:19PM 41.7525 -83.3597 178° South 319 367 15,200 1,500 Climbing FAA TRACON SMA TRACON (SMA)
12:20PM 41.7244 -83.3575 177° South 323 372 15,700 1,020 Climbing FAA TRACON SMA TRACON (SMA)
12:20PM 41.6889 -83.3536 175° South 331 381 15,900 420 Climbing FAA TRACON SMA TRACON (SMA)
12:20PM 41.6592 -83.3506 176° South 344 396 16,000 120 Climbing FAA TRACON SMA TRACON (SMA)
12:21PM 41.6275 -83.3483 177° South 364 419 16,000  Level FAA TRACON SMA TRACON (SMA)
12:21PM 41.5875 -83.3447 176° South 373 429 16,000 -180 Level FAA TRACON SMA TRACON (SMA)
12:21PM 41.5558 -83.3414 175° South 372 428 15,900  Descending FAA TRACON SMA TRACON (SMA)
12:22PM 41.5242 -83.3383 176° South 370 426 16,000 120 Climbing FAA TRACON SMA TRACON (SMA)
12:22PM 41.4853 -83.3350 176° South 366 421 16,000  Level FAA TRACON SMA TRACON (SMA)
12:22PM 41.4542 -83.3319 176° South 364 419 16,000  Level FAA TRACON SMA TRACON (SMA)
12:23PM 41.4236 -83.3289 176° South 360 414 16,000  Level FAA TRACON SMA TRACON (SMA)
12:23PM 41.3853 -83.3247 175° South 357 411 16,000  Level FAA TRACON SMA TRACON (SMA)
12:23PM 41.3550 -83.3225 177° South 356 410 16,000 -180 Level FAA TRACON SMA TRACON (SMA)
12:24PM 41.3364 -83.3189 172° South 354 407 15,900  Descending FAA TRACON SMA TRACON (SMA)
12:24PM 41.2478 -83.3144 178° South 363 418 16,000  Climbing Cleveland Center
12:25PM 41.1478 -83.3050 176° South 363 418 16,000  Level Cleveland Center
12:26PM 41.0419 -83.2922 175° South 363 418 16,000 -360 Level Cleveland Center
12:27PM 40.9378 -83.2822 176° South 368 423 15,300 -1,440 Descending Cleveland Center
12:28PM 40.8442 -83.2731 176° South 368 423 13,200 -2,100 Descending Cleveland Center
12:29PM 40.7483 -83.2692 178° South 362 417 11,100 -1,440 Descending Cleveland Center
12:31PM 40.6242 -83.2553 175° South 338 389 10,000 -540 Descending Indianapolis Center
12:32PM 40.5303 -83.2472 176° South 336 387 10,000  Level Indianapolis Center
12:33PM 40.4367 -83.2392 176° South 335 386 10,000 -480 Level Indianapolis Center
12:34PM 40.3581 -83.2314 176° South 285 328 9,100 -1,140 Descending Indianapolis Center
12:34PM 40.3319 -83.2325 182° South 259 298 8,500 -1,680 Descending Indianapolis Center
12:35PM 40.2867 -83.2278 175° South 257 296 7,400 -1,620 Descending Indianapolis Center
12:35PM 40.2467 -83.2250 177° South 243 280 6,600 -1,500 Descending Indianapolis Center
12:36PM 40.2197 -83.2214 174° South 244 281 5,900 -1,500 Descending Indianapolis Center
12:37PM 40.1553 -83.2172 177° South 235 270 4,300 -1,440 Descending Indianapolis Center
12:38PM 40.1019 -83.1794 152° Southeast 231 266 3,000 -660 Descending Indianapolis Center
12:39PM 40.0544 -83.1044 130° Southeast 228 262 3,000 -300 Level Indianapolis Center
12:40PM 40.0164 -83.0403 128° Southeast 225 259 2,500 -600 Descending Indianapolis Center
12:41PM 40.0075 -82.9786 101° East 184 212 1,800 -720 Descending Indianapolis Center